Time;durP1;ratioP1;P1;durP2;ratioP2;P2;SDS_P1;SDS_P2;PMS_P1;PMS_P2;Temp;Humidity;BMP_temperature;BMP_pressure;BME280_temperature;BME280_humidity;BME280_pressure;Samples;Min_cycle;Max_cycle;Signal;HPM_P1;HPM_P2
2022/03/06 00:01:14;;;;;;;0.20;0.10;;;;;;;0.25;79.11;100787.75;5034134;28;20526;-49
2022/03/06 00:03:41;;;;;;;0.30;0.30;;;;;;;0.44;78.41;100780.31;5034668;28;20471;-49
2022/03/06 00:06:07;;;;;;;0.20;0.20;;;;;;;0.20;79.90;100772.84;5034462;28;20448;-49
2022/03/06 00:08:34;;;;;;;0.20;0.10;;;;;;;0.15;80.12;100771.88;5034503;28;20447;-49
2022/03/06 00:11:01;;;;;;;0.50;0.50;;;;;;;-0.11;80.65;100779.13;5034097;28;20911;-49
2022/03/06 00:13:27;;;;;;;0.20;0.20;;;;;;;0.01;80.18;100784.63;5031002;28;20546;-49
2022/03/06 00:15:54;;;;;;;0.20;0.20;;;;;;;0.22;78.84;100778.97;5033030;28;20502;-49
2022/03/06 00:18:21;;;;;;;2.40;2.30;;;;;;;-0.09;80.72;100787.88;5034315;28;20481;-49
2022/03/06 00:20:48;;;;;;;0.20;0.10;;;;;;;-0.19;79.74;100781.56;5034078;28;20487;-49
2022/03/06 00:23:14;;;;;;;0.80;0.80;;;;;;;-0.12;80.19;100783.47;5027516;28;20468;-49
2022/03/06 00:25:41;;;;;;;0.30;0.27;;;;;;;-0.04;80.25;100788.84;5031221;28;20478;-49
2022/03/06 00:28:07;;;;;;;0.20;0.10;;;;;;;-0.16;79.90;100784.22;5033862;28;20948;-49
2022/03/06 00:30:34;;;;;;;0.20;0.10;;;;;;;-0.19;79.53;100778.06;5033852;28;20455;-49
2022/03/06 00:33:01;;;;;;;0.20;0.13;;;;;;;-0.48;80.57;100790.44;5033762;28;20997;-49
2022/03/06 00:35:28;;;;;;;0.20;0.10;;;;;;;-0.55;80.97;100792.00;5031465;28;20452;-49
2022/03/06 00:37:56;;;;;;;0.30;0.27;;;;;;;-0.61;80.89;100789.28;5028046;28;20507;-49
2022/03/06 00:40:24;;;;;;;0.20;0.10;;;;;;;-0.72;81.20;100793.34;5031052;28;20499;-49
2022/03/06 00:42:51;;;;;;;0.90;0.90;;;;;;;-0.78;81.23;100798.41;5030338;28;20510;-49
2022/03/06 00:45:18;;;;;;;0.20;0.10;;;;;;;-1.01;81.34;100788.25;5033397;28;20447;-49
2022/03/06 00:47:44;;;;;;;0.20;0.20;;;;;;;-1.11;82.40;100791.47;5033685;28;21038;-49
2022/03/06 00:50:11;;;;;;;0.20;0.10;;;;;;;-1.04;82.15;100790.78;5031331;28;20505;-49
2022/03/06 00:52:39;;;;;;;0.20;0.10;;;;;;;-1.09;82.09;100796.75;5033591;28;20501;-49
2022/03/06 00:55:07;;;;;;;0.20;0.10;;;;;;;-1.13;82.01;100797.50;5033470;28;20452;-49
2022/03/06 00:57:34;;;;;;;0.20;0.10;;;;;;;-1.15;82.14;100797.44;5033238;28;20463;-49
2022/03/06 01:00:01;;;;;;;0.20;0.10;;;;;;;-1.42;82.31;100796.69;5033325;28;20451;-49
2022/03/06 01:02:27;;;;;;;0.20;0.10;;;;;;;-1.37;83.30;100801.22;5015880;28;21030;-49
2022/03/06 01:04:54;;;;;;;0.20;0.10;;;;;;;-1.50;83.74;100801.72;5031744;28;20554;-49
2022/03/06 01:07:21;;;;;;;0.20;0.10;;;;;;;-1.39;83.62;100799.38;5033960;28;20998;-49
2022/03/06 01:09:47;;;;;;;0.20;0.20;;;;;;;-1.45;83.98;100796.63;5033077;28;20479;-49
2022/03/06 01:12:14;;;;;;;0.20;0.10;;;;;;;-1.65;83.85;100796.91;5033535;28;20447;-49
2022/03/06 01:14:40;;;;;;;0.20;0.10;;;;;;;-1.54;83.16;100787.69;5025889;28;20483;-49
2022/03/06 01:17:07;;;;;;;0.20;0.10;;;;;;;-1.87;83.88;100799.75;5026641;28;20810;-49
2022/03/06 01:19:34;;;;;;;0.20;0.20;;;;;;;-1.68;84.32;100786.41;5033214;28;20490;-49
2022/03/06 01:22:01;;;;;;;0.30;0.20;;;;;;;-1.66;84.22;100805.56;5032931;28;20522;-49
2022/03/06 01:24:27;;;;;;;0.20;0.10;;;;;;;-1.73;84.30;100792.34;5006279;28;20472;-49
2022/03/06 01:26:57;;;;;;;0.20;0.10;;;;;;;-1.92;84.71;100791.81;5032818;28;20451;-49
2022/03/06 01:29:24;;;;;;;0.20;0.10;;;;;;;-1.92;84.52;100799.63;5032972;28;20501;-49
2022/03/06 01:31:50;;;;;;;0.20;0.20;;;;;;;-1.95;84.93;100793.44;5027541;28;20451;-49
2022/03/06 01:34:17;;;;;;;0.20;0.10;;;;;;;-1.87;84.37;100791.94;5032765;28;20472;-49
2022/03/06 01:36:43;;;;;;;0.20;0.10;;;;;;;-1.87;84.29;100790.22;5030269;28;20487;-49
2022/03/06 01:39:10;;;;;;;0.20;0.10;;;;;;;-2.15;83.90;100792.84;5021899;28;20530;-49
2022/03/06 01:41:37;;;;;;;0.30;0.20;;;;;;;-2.12;84.95;100796.41;5029338;28;20528;-49
2022/03/06 01:44:04;;;;;;;0.20;0.10;;;;;;;-2.09;85.17;100798.22;5032829;28;20522;-49
2022/03/06 01:46:31;;;;;;;0.53;0.53;;;;;;;-2.15;85.04;100787.63;5032578;28;20452;-49
2022/03/06 01:48:58;;;;;;;0.20;0.10;;;;;;;-2.09;86.07;100793.91;5032747;28;20580;-49
2022/03/06 01:51:24;;;;;;;0.20;0.10;;;;;;;-2.22;85.25;100796.06;5032559;28;20444;-49
2022/03/06 01:53:51;;;;;;;0.20;0.10;;;;;;;-2.28;85.96;100794.19;5023028;28;20483;-49
2022/03/06 01:56:18;;;;;;;0.40;0.40;;;;;;;-2.40;85.83;100794.69;5027667;28;20498;-49
2022/03/06 01:58:46;;;;;;;0.20;0.10;;;;;;;-2.46;85.63;100793.63;5033276;28;20451;-48
2022/03/06 02:01:12;;;;;;;0.20;0.10;;;;;;;-2.46;85.59;100784.09;5032911;28;20487;-49
2022/03/06 02:03:39;;;;;;;0.20;0.10;;;;;;;-2.62;85.99;100791.31;5029851;28;20471;-49
2022/03/06 02:06:08;;;;;;;2.50;0.40;;;;;;;-2.56;86.17;100786.34;5032859;28;20452;-49
2022/03/06 02:08:34;;;;;;;0.50;0.50;;;;;;;-2.58;85.92;100788.91;5033074;28;20506;-49
2022/03/06 02:11:01;;;;;;;0.20;0.10;;;;;;;-2.46;85.32;100783.22;5021367;28;20503;-49
2022/03/06 02:13:28;;;;;;;0.20;0.10;;;;;;;-2.56;86.61;100779.41;5032770;28;20484;-48
2022/03/06 02:15:55;;;;;;;0.20;0.10;;;;;;;-2.56;86.87;100789.81;5015385;28;20443;-48
2022/03/06 02:18:22;;;;;;;0.20;0.10;;;;;;;-2.59;86.38;100783.66;5033018;28;20920;-49
2022/03/06 02:20:48;;;;;;;0.30;0.27;;;;;;;-2.64;86.86;100775.66;5032550;28;20455;-49
2022/03/06 02:23:16;;;;;;;0.20;0.10;;;;;;;-2.72;86.78;100783.25;5032942;28;20518;-49
2022/03/06 02:25:42;;;;;;;0.30;0.20;;;;;;;-2.64;86.77;100785.19;5022465;28;20459;-49
2022/03/06 02:28:10;;;;;;;0.20;0.10;;;;;;;-2.79;86.65;100783.88;5033177;28;20509;-49
2022/03/06 02:30:42;;;;;;;2.10;2.00;;;;;;;-2.84;87.48;100787.16;5032706;28;20945;-49
2022/03/06 02:33:11;;;;;;;0.47;0.47;;;;;;;-2.64;86.44;100790.41;5032390;28;20460;-48
2022/03/06 02:35:38;;;;;;;0.20;0.10;;;;;;;-2.66;87.91;100797.28;5029933;28;20447;-49
2022/03/06 02:38:06;;;;;;;0.20;0.10;;;;;;;-2.73;86.96;100783.19;5033710;28;21023;-48
2022/03/06 02:40:38;;;;;;;0.20;0.10;;;;;;;-2.74;88.33;100784.91;5032212;28;20456;-49
2022/03/06 02:43:06;;;;;;;0.20;0.10;;;;;;;-2.95;88.45;100786.78;5033195;28;21057;-48
2022/03/06 02:45:34;;;;;;;0.20;0.10;;;;;;;-2.84;87.49;100781.97;5036515;28;20509;-48
2022/03/06 02:48:02;;;;;;;0.30;0.20;;;;;;;-2.83;88.20;100788.91;5036614;28;20462;-48
2022/03/06 02:50:33;;;;;;;0.20;0.10;;;;;;;-2.92;88.85;100786.88;5036700;28;20447;-49
2022/03/06 02:53:02;;;;;;;0.40;0.40;;;;;;;-2.89;88.49;100786.97;5036167;28;20439;-48
2022/03/06 02:55:29;;;;;;;0.53;0.53;;;;;;;-3.00;88.84;100784.06;5032521;28;20452;-49
2022/03/06 02:57:56;;;;;;;0.20;0.10;;;;;;;-2.96;88.50;100785.03;5036107;28;20498;-49
2022/03/06 03:00:25;;;;;;;0.20;0.13;;;;;;;-2.91;88.33;100782.56;5033377;28;20452;-49
2022/03/06 03:02:52;;;;;;;0.20;0.10;;;;;;;-2.94;88.02;100788.56;5030662;28;20487;-49
2022/03/06 03:05:20;;;;;;;0.30;0.20;;;;;;;-2.90;88.42;100779.13;5036313;28;20458;-49
2022/03/06 03:07:49;;;;;;;0.20;0.20;;;;;;;-2.91;88.14;100772.16;5036134;28;20455;-49
2022/03/06 03:10:18;;;;;;;0.20;0.10;;;;;;;-2.75;88.22;100777.91;5035763;28;20459;-48
2022/03/06 03:12:46;;;;;;;0.20;0.10;;;;;;;-2.90;87.57;100784.34;5035629;28;20448;-49
2022/03/06 03:15:13;;;;;;;0.90;0.90;;;;;;;-3.09;88.89;100788.03;5032079;28;20942;-49
2022/03/06 03:17:40;;;;;;;4.03;1.60;;;;;;;-3.14;89.64;100784.41;5032872;28;20964;-49
2022/03/06 03:20:08;;;;;;;0.20;0.10;;;;;;;-3.00;90.01;100786.66;5036029;28;20455;-49
2022/03/06 03:22:35;;;;;;;0.20;0.20;;;;;;;-3.14;89.95;100792.22;5035529;28;20495;-49
2022/03/06 03:25:02;;;;;;;0.20;0.10;;;;;;;-2.96;89.59;100789.34;5035689;28;20549;-48
2022/03/06 03:27:29;;;;;;;0.20;0.10;;;;;;;-2.95;89.32;100789.41;5022545;28;20447;-48
2022/03/06 03:29:55;;;;;;;0.20;0.10;;;;;;;-3.09;89.57;100803.66;5035691;28;20490;-49
2022/03/06 03:32:22;;;;;;;0.30;0.10;;;;;;;-3.01;89.17;100797.00;5035700;28;20444;-48
2022/03/06 03:34:49;;;;;;;0.30;0.23;;;;;;;-3.08;89.00;100795.91;5032615;28;20471;-48
2022/03/06 03:37:16;;;;;;;0.20;0.10;;;;;;;-3.12;90.42;100811.34;5033978;28;20498;-49
2022/03/06 03:39:43;;;;;;;0.70;0.70;;;;;;;-3.12;90.43;100804.44;5035378;28;20452;-49
2022/03/06 03:42:10;;;;;;;0.20;0.10;;;;;;;-2.94;89.84;100805.88;5031990;28;20487;-49
2022/03/06 03:44:36;;;;;;;0.20;0.20;;;;;;;-3.05;89.92;100813.31;5035718;28;20468;-49
2022/03/06 03:47:03;;;;;;;0.93;0.93;;;;;;;-2.92;90.16;100807.69;5035341;28;20960;-49
2022/03/06 03:49:30;;;;;;;0.20;0.10;;;;;;;-3.11;90.11;100818.31;5032038;28;20451;-49
2022/03/06 03:51:56;;;;;;;0.20;0.10;;;;;;;-2.97;90.41;100813.59;5034001;28;20502;-48
2022/03/06 03:54:23;;;;;;;0.20;0.10;;;;;;;-2.96;91.16;100816.22;5035005;28;20537;-48
2022/03/06 03:56:50;;;;;;;0.20;0.10;;;;;;;-2.95;90.57;100819.72;5035299;28;20440;-49
2022/03/06 03:59:16;;;;;;;3.10;2.80;;;;;;;-2.89;90.97;100818.19;5035256;28;20460;-49
2022/03/06 04:01:43;;;;;;;0.20;0.10;;;;;;;-2.87;89.94;100826.06;5035257;28;20537;-49
2022/03/06 04:04:10;;;;;;;0.20;0.10;;;;;;;-2.91;89.75;100818.97;5031226;28;20567;-48
2022/03/06 04:06:37;;;;;;;0.20;0.10;;;;;;;-2.94;89.68;100819.75;5034494;28;20447;-49
2022/03/06 04:09:03;;;;;;;0.20;0.10;;;;;;;-2.88;90.47;100826.88;5035247;28;20483;-48
2022/03/06 04:11:30;;;;;;;0.20;0.10;;;;;;;-2.89;90.34;100831.19;5035108;28;20773;-47
2022/03/06 04:13:57;;;;;;;0.20;0.10;;;;;;;-2.99;90.67;100824.81;5034374;28;20475;-47
2022/03/06 04:16:23;;;;;;;0.20;0.10;;;;;;;-3.14;91.11;100829.50;5026959;28;20455;-47
2022/03/06 04:18:50;;;;;;;0.20;0.10;;;;;;;-3.07;91.30;100833.16;5034751;28;20448;-47
2022/03/06 04:21:17;;;;;;;0.20;0.10;;;;;;;-3.19;91.67;100825.81;5034763;28;20493;-47
2022/03/06 04:23:45;;;;;;;0.20;0.10;;;;;;;-3.16;91.47;100828.53;5032812;28;20467;-47
2022/03/06 04:26:11;;;;;;;0.83;0.77;;;;;;;-3.02;91.54;100835.09;5034813;28;20447;-47
2022/03/06 04:28:38;;;;;;;0.20;0.10;;;;;;;-3.07;91.14;100830.56;5034921;28;20451;-47
2022/03/06 04:31:04;;;;;;;0.20;0.20;;;;;;;-2.93;91.29;100842.34;5034767;28;20508;-47
2022/03/06 04:33:31;;;;;;;0.20;0.10;;;;;;;-3.03;91.96;100845.44;5034501;28;20503;-47
2022/03/06 04:35:58;;;;;;;0.20;0.20;;;;;;;-2.92;92.01;100843.22;5032410;28;20471;-48
2022/03/06 04:38:24;;;;;;;0.20;0.10;;;;;;;-2.94;93.19;100847.47;5032901;28;20487;-47
2022/03/06 04:40:51;;;;;;;0.20;0.10;;;;;;;-2.85;91.98;100850.41;5022137;28;20510;-47
2022/03/06 04:43:18;;;;;;;0.20;0.20;;;;;;;-2.74;92.05;100852.56;5030099;28;20548;-47
2022/03/06 04:45:45;;;;;;;0.30;0.20;;;;;;;-2.58;91.19;100840.94;5022651;28;20444;-46
2022/03/06 04:48:11;;;;;;;0.20;0.10;;;;;;;-2.49;91.51;100848.13;5034221;28;20505;-47
2022/03/06 04:50:38;;;;;;;0.20;0.10;;;;;;;-2.56;90.97;100843.59;5034116;28;20513;-49
2022/03/06 04:53:05;;;;;;;0.20;0.10;;;;;;;-2.52;90.96;100853.25;5034249;28;20475;-47
2022/03/06 04:55:31;;;;;;;0.40;0.40;;;;;;;-2.43;90.29;100858.78;5034182;28;20474;-47
2022/03/06 04:57:58;;;;;;;0.20;0.10;;;;;;;-2.62;91.00;100858.97;5033642;28;20460;-47
2022/03/06 05:00:25;;;;;;;0.30;0.27;;;;;;;-2.49;90.67;100854.22;5022327;28;20456;-47
2022/03/06 05:02:52;;;;;;;0.20;0.10;;;;;;;-2.52;91.53;100848.94;5033500;28;20487;-47
2022/03/06 05:05:19;;;;;;;0.20;0.10;;;;;;;-2.38;90.66;100857.19;5028416;28;20478;-47
2022/03/06 05:07:45;;;;;;;0.20;0.10;;;;;;;-2.49;91.38;100854.22;5033858;28;21026;-48
2022/03/06 05:10:12;;;;;;;0.20;0.10;;;;;;;-2.69;91.38;100857.91;5016661;28;20513;-47
2022/03/06 05:12:41;;;;;;;0.20;0.10;;;;;;;-2.57;92.23;100860.03;5033916;28;20456;-47
2022/03/06 05:15:11;;;;;;;0.20;0.10;;;;;;;-2.64;91.38;100863.25;5024397;28;20460;-47
2022/03/06 05:17:39;;;;;;;0.20;0.10;;;;;;;-2.64;91.13;100861.53;5033535;28;20444;-47
2022/03/06 05:20:07;;;;;;;0.20;0.10;;;;;;;-2.58;91.15;100873.88;5033630;28;20487;-47
2022/03/06 05:22:34;;;;;;;0.20;0.10;;;;;;;-2.67;91.81;100864.03;5033729;28;20557;-48
2022/03/06 05:25:01;;;;;;;0.20;0.10;;;;;;;-2.66;91.58;100865.81;5033416;28;20997;-47
2022/03/06 05:27:27;;;;;;;0.20;0.10;;;;;;;-2.78;92.56;100863.66;5018437;28;20457;-47
2022/03/06 05:29:54;;;;;;;0.20;0.10;;;;;;;-2.61;91.46;100871.16;5025761;28;20482;-46
2022/03/06 05:32:21;;;;;;;0.30;0.20;;;;;;;-2.60;91.59;100876.44;5032222;28;20510;-47
2022/03/06 05:34:48;;;;;;;0.20;0.10;;;;;;;-2.59;91.97;100873.00;5033233;28;20472;-47
2022/03/06 05:37:15;;;;;;;0.20;0.10;;;;;;;-2.63;91.57;100870.22;5032399;28;20483;-47
2022/03/06 05:39:42;;;;;;;0.20;0.10;;;;;;;-2.71;91.85;100877.78;5033621;28;20494;-47
2022/03/06 05:42:09;;;;;;;0.50;0.50;;;;;;;-2.57;91.78;100880.84;5030033;28;20541;-47
2022/03/06 05:44:35;;;;;;;0.20;0.10;;;;;;;-2.58;91.90;100879.97;5033157;28;20472;-49
2022/03/06 05:47:02;;;;;;;0.20;0.10;;;;;;;-2.71;92.75;100880.38;5032162;28;20462;-47
2022/03/06 05:49:29;;;;;;;0.20;0.10;;;;;;;-2.82;93.36;100884.31;5033285;28;20482;-47
2022/03/06 05:51:56;;;;;;;0.20;0.10;;;;;;;-2.71;92.94;100891.66;5032918;28;20506;-46
2022/03/06 05:54:22;;;;;;;2.20;0.67;;;;;;;-2.72;92.86;100884.69;5021042;28;20994;-47
2022/03/06 05:56:49;;;;;;;0.20;0.10;;;;;;;-2.75;93.20;100892.38;5032334;28;20447;-47
2022/03/06 05:59:16;;;;;;;0.20;0.10;;;;;;;-2.55;92.47;100889.59;5032982;28;21019;-47
2022/03/06 06:01:43;;;;;;;0.20;0.10;;;;;;;-2.92;93.96;100890.91;5032912;28;20478;-48
2022/03/06 06:04:12;;;;;;;0.20;0.10;;;;;;;-2.74;93.47;100894.16;5032636;28;20533;-46
2022/03/06 06:06:39;;;;;;;0.53;0.53;;;;;;;-2.63;93.00;100899.72;5006816;28;20882;-47
2022/03/06 06:09:05;;;;;;;0.20;0.10;;;;;;;-2.54;93.11;100905.25;5021472;28;20456;-48
2022/03/06 06:11:32;;;;;;;0.20;0.10;;;;;;;-2.52;92.62;100908.78;5029142;28;20509;-47
2022/03/06 06:13:59;;;;;;;0.20;0.10;;;;;;;-2.49;92.30;100911.47;5035511;28;20584;-47
2022/03/06 06:16:25;;;;;;;0.20;0.10;;;;;;;-2.46;92.14;100910.72;5037521;28;20509;-46
2022/03/06 06:18:52;;;;;;;0.20;0.10;;;;;;;-2.48;93.24;100913.25;5037051;28;20447;-47
2022/03/06 06:21:19;;;;;;;0.77;0.73;;;;;;;-2.33;92.35;100917.19;5010863;28;20478;-47
2022/03/06 06:23:46;;;;;;;0.20;0.10;;;;;;;-2.41;92.34;100919.56;5036785;28;20495;-51
2022/03/06 06:26:12;;;;;;;0.30;0.20;;;;;;;-2.38;92.83;100920.53;5034020;28;20501;-47
2022/03/06 06:28:39;;;;;;;0.20;0.10;;;;;;;-2.25;92.67;100916.63;5030102;28;20484;-48
2022/03/06 06:31:06;;;;;;;0.20;0.10;;;;;;;-2.28;92.26;100913.94;5026799;28;20515;-47
2022/03/06 06:33:32;;;;;;;0.30;0.30;;;;;;;-2.23;92.47;100914.94;5030642;28;20494;-46
2022/03/06 06:36:00;;;;;;;0.20;0.20;;;;;;;-2.18;92.52;100916.00;5034622;28;20447;-46
2022/03/06 06:38:27;;;;;;;0.20;0.10;;;;;;;-2.15;92.24;100923.91;5036459;28;20448;-46
2022/03/06 06:40:54;;;;;;;0.20;0.10;;;;;;;-2.12;92.43;100925.72;5036756;28;20941;-47
2022/03/06 06:43:21;;;;;;;0.20;0.10;;;;;;;-2.02;92.32;100925.19;5033177;28;21075;-47
2022/03/06 06:45:48;;;;;;;0.20;0.10;;;;;;;-1.85;92.15;100926.59;5028366;28;20508;-46
2022/03/06 06:48:15;;;;;;;0.20;0.10;;;;;;;-1.83;91.90;100930.16;5032410;28;20493;-48
2022/03/06 06:50:42;;;;;;;5.50;1.80;;;;;;;-1.74;91.81;100931.28;5036562;28;20513;-47
2022/03/06 06:53:09;;;;;;;0.20;0.20;;;;;;;-1.66;91.87;100924.56;5036347;28;20468;-47
2022/03/06 06:55:35;;;;;;;0.20;0.10;;;;;;;-2.02;92.50;100924.31;5036230;28;20506;-47
2022/03/06 06:58:05;;;;;;;0.20;0.10;;;;;;;-1.96;93.93;100929.69;5035938;28;20482;-46
2022/03/06 07:00:33;;;;;;;0.20;0.10;;;;;;;-1.69;93.05;100927.97;5030867;28;20460;-47
2022/03/06 07:03:00;;;;;;;0.20;0.10;;;;;;;-1.62;92.23;100935.16;5032556;28;20497;-47
2022/03/06 07:05:27;;;;;;;0.20;0.10;;;;;;;-1.53;91.98;100927.59;5036257;28;20549;-47
2022/03/06 07:07:54;;;;;;;0.20;0.10;;;;;;;-1.42;91.70;100925.31;5036317;28;20477;-48
2022/03/06 07:10:21;;;;;;;0.20;0.13;;;;;;;-1.40;91.88;100917.53;5035992;28;20451;-47
2022/03/06 07:12:53;;;;;;;0.30;0.20;;;;;;;-1.46;92.26;100928.69;5033684;28;20491;-47
2022/03/06 07:15:21;;;;;;;1.37;1.37;;;;;;;-1.34;91.92;100929.06;5036068;28;20535;-48
2022/03/06 07:17:48;;;;;;;1.33;1.23;;;;;;;-1.39;91.67;100920.19;5030470;28;20505;-46
2022/03/06 07:20:15;;;;;;;0.20;0.20;;;;;;;-1.38;92.81;100916.75;5025719;28;20517;-47
2022/03/06 07:22:41;;;;;;;0.20;0.10;;;;;;;-1.18;91.49;100922.56;5033752;28;20533;-50
2022/03/06 07:25:08;;;;;;;0.20;0.10;;;;;;;-1.01;91.02;100928.25;5027672;28;20448;-47
2022/03/06 07:27:35;;;;;;;0.20;0.10;;;;;;;-0.94;90.51;100931.09;5035607;28;21018;-47
2022/03/06 07:30:02;;;;;;;0.20;0.10;;;;;;;-0.85;90.25;100925.22;5036010;28;20451;-47
2022/03/06 07:32:28;;;;;;;0.20;0.10;;;;;;;-0.82;89.96;100940.06;5035810;28;20456;-47
2022/03/06 07:34:55;;;;;;;0.20;0.10;;;;;;;-0.70;89.74;100933.47;5032450;28;20479;-46
2022/03/06 07:37:21;;;;;;;0.30;0.30;;;;;;;-0.69;89.69;100940.44;5034930;28;20448;-47
2022/03/06 07:39:49;;;;;;;0.20;0.10;;;;;;;-0.55;89.95;100935.59;5032900;28;20452;-47
2022/03/06 07:42:16;;;;;;;0.53;0.53;;;;;;;-0.84;91.42;100933.94;5031372;28;21023;-47
2022/03/06 07:44:42;;;;;;;0.43;0.40;;;;;;;-0.71;91.00;100938.63;5035439;28;20503;-47
2022/03/06 07:47:09;;;;;;;0.50;0.47;;;;;;;-0.55;90.56;100929.50;5035458;28;20448;-48
2022/03/06 07:49:36;;;;;;;0.20;0.10;;;;;;;-0.49;91.85;100938.38;5035650;28;20498;-47
2022/03/06 07:52:03;;;;;;;0.43;0.40;;;;;;;-0.33;90.35;100939.66;5035125;28;20868;-47
2022/03/06 07:54:30;;;;;;;0.20;0.10;;;;;;;-0.32;90.54;100931.88;5034012;28;20467;-47
2022/03/06 07:56:57;;;;;;;0.20;0.10;;;;;;;-0.24;90.80;100936.41;5035004;28;20853;-48
2022/03/06 07:59:25;;;;;;;0.20;0.10;;;;;;;-0.11;90.42;100943.72;5024285;28;20457;-47
2022/03/06 08:01:53;;;;;;;0.20;0.20;;;;;;;-0.04;90.25;100940.41;5018466;28;20555;-47
2022/03/06 08:04:20;;;;;;;0.20;0.10;;;;;;;0.04;90.25;100938.88;5019784;28;20511;-47
2022/03/06 08:06:48;;;;;;;25.90;5.33;;;;;;;0.22;89.46;100951.47;5021191;28;20451;-49
2022/03/06 08:09:15;;;;;;;0.20;0.10;;;;;;;0.37;88.77;100949.22;5024949;28;20464;-47
2022/03/06 08:11:41;;;;;;;0.80;0.80;;;;;;;0.50;88.83;100953.88;5023970;28;20455;-47
2022/03/06 08:14:08;;;;;;;0.30;0.20;;;;;;;0.58;88.54;100954.97;5028720;28;20480;-46
2022/03/06 08:16:34;;;;;;;0.20;0.10;;;;;;;0.66;87.70;100960.34;5006684;28;21006;-47
2022/03/06 08:19:01;;;;;;;0.20;0.10;;;;;;;0.82;87.80;100954.63;5034450;28;21412;-47
2022/03/06 08:21:29;;;;;;;0.20;0.17;;;;;;;0.98;86.92;100950.59;5020742;28;20459;-47
2022/03/06 08:23:56;;;;;;;0.20;0.20;;;;;;;1.15;86.82;100953.53;5023343;28;21087;-48
2022/03/06 08:26:25;;;;;;;0.40;0.40;;;;;;;1.13;85.17;100964.00;5022674;28;20501;-47
2022/03/06 08:28:52;;;;;;;0.20;0.10;;;;;;;1.37;86.11;100957.44;5034508;28;20522;-47
2022/03/06 08:31:20;;;;;;;0.20;0.10;;;;;;;1.61;85.14;100967.50;5027015;28;20451;-47
2022/03/06 08:33:47;;;;;;;0.20;0.10;;;;;;;1.73;85.22;100970.38;5028947;28;20530;-48
2022/03/06 08:36:13;;;;;;;0.53;0.50;;;;;;;1.84;85.70;100966.22;5027911;28;20460;-47
2022/03/06 08:38:40;;;;;;;0.50;0.50;;;;;;;1.97;85.48;100965.56;5031665;28;20447;-47
2022/03/06 08:41:07;;;;;;;0.30;0.20;;;;;;;2.13;86.33;100966.69;5028592;28;20495;-47
2022/03/06 08:43:33;;;;;;;0.20;0.10;;;;;;;2.13;84.32;100961.44;5030527;28;20550;-47
2022/03/06 08:46:02;;;;;;;0.30;0.10;;;;;;;2.36;83.22;100965.34;5034009;28;20444;-48
2022/03/06 08:48:30;;;;;;;0.20;0.10;;;;;;;2.66;81.03;100957.03;5021164;28;20898;-47
2022/03/06 08:50:57;;;;;;;0.20;0.20;;;;;;;2.80;79.57;100965.09;5014679;28;20507;-48
2022/03/06 08:53:24;;;;;;;0.20;0.20;;;;;;;2.98;79.43;100965.31;5018511;28;20841;-48
2022/03/06 08:55:50;;;;;;;0.30;0.17;;;;;;;3.44;78.97;100962.41;5033495;28;20817;-48
2022/03/06 08:58:17;;;;;;;0.20;0.10;;;;;;;3.70;75.04;100953.03;5033385;28;20957;-48
2022/03/06 09:00:43;;;;;;;0.30;0.20;;;;;;;3.67;73.41;100957.38;5033652;28;20475;-48
2022/03/06 09:03:10;;;;;;;0.23;0.20;;;;;;;3.96;66.57;100960.28;5033222;28;20842;-47
2022/03/06 09:05:40;;;;;;;0.20;0.10;;;;;;;4.24;57.52;100964.91;5034141;28;20456;-49
2022/03/06 09:08:09;;;;;;;0.50;0.50;;;;;;;4.41;56.65;100959.78;5034042;28;20455;-49
2022/03/06 09:10:37;;;;;;;0.20;0.20;;;;;;;4.61;55.20;100965.16;5034036;28;20463;-47
2022/03/06 09:13:05;;;;;;;0.37;0.37;;;;;;;4.73;55.25;100960.88;5033464;28;20476;-48
2022/03/06 09:15:32;;;;;;;0.60;0.57;;;;;;;4.83;54.05;100963.56;5033447;28;20502;-50
2022/03/06 09:17:59;;;;;;;0.20;0.20;;;;;;;4.83;53.29;100959.19;5033568;28;20455;-49
2022/03/06 09:20:26;;;;;;;5.10;1.80;;;;;;;5.08;54.38;100959.31;5033473;28;20865;-47
2022/03/06 09:22:53;;;;;;;0.40;0.40;;;;;;;5.15;51.66;100958.44;5033602;28;20521;-47
2022/03/06 09:25:20;;;;;;;0.20;0.13;;;;;;;5.22;52.00;100955.84;5033232;28;20452;-47
2022/03/06 09:27:47;;;;;;;0.20;0.10;;;;;;;5.26;51.50;100965.53;5033253;28;20451;-47
2022/03/06 09:30:14;;;;;;;0.50;0.50;;;;;;;5.23;50.35;100952.34;5032938;28;20505;-48
2022/03/06 09:32:40;;;;;;;0.20;0.10;;;;;;;5.28;50.48;100952.34;5032882;28;20451;-48
2022/03/06 09:35:08;;;;;;;0.30;0.20;;;;;;;5.55;50.14;100947.16;5030860;28;20497;-48
2022/03/06 09:37:41;;;;;;;0.40;0.40;;;;;;;5.39;49.47;100949.75;5032942;28;20447;-47
2022/03/06 09:40:08;;;;;;;0.30;0.20;;;;;;;5.57;49.96;100952.44;5032553;28;20879;-48
2022/03/06 09:42:35;;;;;;;0.20;0.10;;;;;;;5.81;49.68;100948.97;5029667;28;20447;-48
2022/03/06 09:45:08;;;;;;;3.50;1.17;;;;;;;5.82;49.77;100954.25;5032487;28;20491;-48
2022/03/06 09:47:35;;;;;;;1.40;1.40;;;;;;;5.61;48.44;100952.44;5032614;28;20447;-48
2022/03/06 09:50:03;;;;;;;0.40;0.40;;;;;;;5.78;49.18;100957.75;5032918;28;20479;-48
2022/03/06 09:52:30;;;;;;;0.20;0.13;;;;;;;5.99;47.89;100951.66;5032739;28;20455;-48
2022/03/06 09:54:57;;;;;;;0.20;0.10;;;;;;;5.81;43.50;100956.88;5032481;28;20467;-49
2022/03/06 09:57:24;;;;;;;0.20;0.13;;;;;;;5.71;44.27;100963.00;5033537;28;20451;-47
2022/03/06 09:59:50;;;;;;;0.20;0.10;;;;;;;5.91;45.39;100964.84;5033532;28;20447;-48
2022/03/06 10:02:17;;;;;;;0.20;0.20;;;;;;;6.20;45.27;100959.59;5035952;28;20517;-48
2022/03/06 10:04:46;;;;;;;0.30;0.20;;;;;;;6.17;43.38;100956.97;5032907;28;20598;-48
2022/03/06 10:07:15;;;;;;;0.20;0.10;;;;;;;6.47;44.66;100957.81;5034712;28;20458;-50
2022/03/06 10:09:58;;;;;;;0.20;0.20;;;;;;;6.17;41.80;100967.50;5046861;23;21034;-51
2022/03/06 10:12:27;;;;;;;0.20;0.10;;;;;;;5.88;41.59;100958.63;5019144;28;20436;-52
2022/03/06 10:15:03;;;;;;;0.20;0.10;;;;;;;6.09;41.86;100961.34;5019494;28;20498;-52
2022/03/06 10:17:31;;;;;;;0.57;0.57;;;;;;;6.21;41.74;100964.00;5017470;28;20448;-52
2022/03/06 10:20:05;;;;;;;0.30;0.10;;;;;;;6.15;41.83;100961.31;5020803;28;20475;-52
2022/03/06 10:22:35;;;;;;;0.20;0.20;;;;;;;5.54;42.26;100958.59;5015990;28;20444;-52
2022/03/06 10:25:13;;;;;;;0.20;0.10;;;;;;;5.75;41.65;100956.84;5017570;28;20508;-52
2022/03/06 10:27:53;;;;;;;0.20;0.10;;;;;;;5.91;42.60;100961.34;5017762;28;20515;-52
2022/03/06 10:30:37;;;;;;;0.20;0.10;;;;;;;6.01;43.99;100955.16;5015517;28;20552;-52
2022/03/06 10:33:07;;;;;;;0.20;0.13;;;;;;;6.10;43.28;100964.84;5021704;28;20474;-52
2022/03/06 10:35:39;;;;;;;0.20;0.20;;;;;;;6.20;43.08;100962.22;5026388;28;20443;-52
2022/03/06 10:38:29;;;;;;;0.30;0.20;;;;;;;5.90;43.31;100951.66;5020910;28;20525;-52
2022/03/06 10:41:01;;;;;;;0.20;0.10;;;;;;;5.73;44.07;100950.69;5021044;28;20526;-52
2022/03/06 10:43:33;;;;;;;0.20;0.10;;;;;;;6.10;43.33;100954.31;5017278;28;21011;-52
2022/03/06 10:46:09;;;;;;;0.30;0.20;;;;;;;6.33;43.42;100956.94;5020354;28;20503;-52
2022/03/06 10:48:37;;;;;;;0.30;0.30;;;;;;;6.43;43.19;100954.28;5016493;28;20659;-52
2022/03/06 10:51:09;;;;;;;0.20;0.10;;;;;;;6.24;41.56;100948.13;5020487;28;20491;-52
2022/03/06 10:53:36;;;;;;;0.20;0.20;;;;;;;6.34;40.80;100948.16;5018254;28;20502;-52
2022/03/06 10:56:13;;;;;;;0.20;0.20;;;;;;;6.52;42.66;100953.41;5020442;28;20455;-52
2022/03/06 10:58:42;;;;;;;0.30;0.20;;;;;;;6.24;41.44;100953.41;5018450;28;20499;-52
2022/03/06 11:01:27;;;;;;;0.20;0.10;;;;;;;6.32;41.77;100950.78;5018748;28;20467;-52
2022/03/06 11:03:58;;;;;;;0.20;0.10;;;;;;;6.45;41.87;100936.69;5025725;28;21021;-56
2022/03/06 11:06:26;;;;;;;0.20;0.20;;;;;;;6.53;43.31;100945.47;5017932;28;20487;-52
2022/03/06 11:08:53;;;;;;;0.50;0.50;;;;;;;6.56;42.81;100944.56;5026221;28;21023;-52
2022/03/06 11:11:21;;;;;;;0.20;0.10;;;;;;;6.64;41.80;100947.22;5036922;28;20447;-52
2022/03/06 11:13:48;;;;;;;0.27;0.20;;;;;;;6.67;41.67;100942.81;5022605;28;20455;-52
2022/03/06 11:16:15;;;;;;;2.00;1.13;;;;;;;6.86;42.05;100933.09;5015829;28;20456;-52
2022/03/06 11:18:43;;;;;;;0.20;0.10;;;;;;;6.51;41.18;100941.97;5018075;28;20882;-52
2022/03/06 11:21:10;;;;;;;2.40;2.37;;;;;;;6.68;40.61;100934.00;5017056;28;20536;-52
2022/03/06 11:23:41;;;;;;;0.77;0.77;;;;;;;6.60;40.85;100932.28;5021368;28;20484;-52
2022/03/06 11:26:50;;;;;;;0.30;0.20;;;;;;;6.43;40.96;100922.59;5020819;28;20809;-52
2022/03/06 11:29:16;;;;;;;0.20;0.10;;;;;;;6.52;41.04;100929.63;5009720;28;20530;-52